Radville, Canada
Current Conditions -  °F | °C
As of 10:15 PM on Sunday 21 Dec 2014 (Local Time) from KD50 Reporting Station
Overcast Overcast  
Wind Chill: 28°   Ceiling: 11000
Heat Index: 28°   Visibility: 10mi
Dew Point: 28°   Wind: 3mph
Humidity: 100%   Direction: 130°SE
Pressure: 29.38"   Gusts: NA
Location:  49.47°N, 104.28°W
Report Text: KD50 220415Z AUTO 13003KT 10SM OVC110 M02/M02 A2938 RMK AO2
Loading
Personal Weather Stations






























Interactive Weather Map New forecast layout! Learn more

10-Day Weather Forecast

Advertisements
Track Severe Weather on mobile